Time;durP1;ratioP1;P1;durP2;ratioP2;P2;SDS_P1;SDS_P2;PMS_P1;PMS_P2;Temp;Humidity;BMP_temperature;BMP_pressure;BME280_temperature;BME280_humidity;BME280_pressure;Samples;Min_cycle;Max_cycle;Signal;HPM_P1;HPM_P2
2021/08/13 00:01:37;;;;;;;;;;;18.10;99.90;;;18.10;100.00;100868.69;5035181;28;19929;-64
2021/08/13 00:04:05;;;;;;;;;;;18.10;99.90;;;18.10;100.00;100861.28;5035438;28;19925;-63
2021/08/13 00:06:33;;;;;;;;;;;18.10;99.90;;;18.01;100.00;100863.31;5035451;28;20359;-63
2021/08/13 00:09:02;;;;;;;;;;;18.10;99.90;;;17.88;100.00;100856.19;5034301;28;19925;-63
2021/08/13 00:11:30;;;;;;;;;;;18.00;99.90;;;17.88;100.00;100850.72;5035088;28;19932;-63
2021/08/13 00:13:58;;;;;;;;;;;18.00;99.90;;;17.95;100.00;100857.25;5035499;28;19933;-63
2021/08/13 00:16:25;;;;;;;;;;;18.10;99.90;;;17.92;100.00;100855.19;5035237;28;19926;-63
2021/08/13 00:18:53;;;;;;;;;;;;;;;17.89;100.00;100849.59;5034213;28;19929;-64
2021/08/13 00:21:21;;;;;;;;;;;17.90;99.90;;;17.78;100.00;100848.44;5034786;28;19943;-63
2021/08/13 00:23:49;;;;;;;;;;;17.90;99.90;;;17.73;100.00;100848.63;5035298;28;19925;-64
2021/08/13 00:26:18;;;;;;;;;;;17.80;99.90;;;17.78;100.00;100843.72;5034927;28;19929;-64
2021/08/13 00:28:46;;;;;;;;;;;17.90;99.90;;;17.85;100.00;100848.66;5033907;28;19925;-64
2021/08/13 00:31:13;;;;;;;;;;;17.90;99.90;;;17.92;100.00;100841.53;5034565;28;19936;-63
2021/08/13 00:33:41;;;;;;;;;;;18.00;99.90;;;17.97;100.00;100852.22;5034963;28;20299;-65
2021/08/13 00:36:09;;;;;;;;;;;18.00;99.90;;;17.86;100.00;100848.34;5034669;28;20367;-64
2021/08/13 00:38:37;;;;;;;;;;;17.90;99.90;;;17.79;100.00;100845.34;5033531;28;19936;-65
2021/08/13 00:41:05;;;;;;;;;;;;;;;17.83;100.00;100851.75;5034444;28;19925;-64
2021/08/13 00:43:34;;;;;;;;;;;18.00;99.90;;;17.85;100.00;100845.94;5034979;28;19929;-63
2021/08/13 00:46:02;;;;;;;;;;;17.90;99.90;;;17.81;100.00;100850.50;5034688;28;19925;-64
2021/08/13 00:48:30;;;;;;;;;;;17.90;99.90;;;17.93;100.00;100856.00;5033641;28;19939;-63
2021/08/13 00:50:57;;;;;;;;;;;18.00;99.90;;;17.97;100.00;100856.91;5034241;28;20289;-63
2021/08/13 00:53:26;;;;;;;;;;;18.00;99.90;;;17.94;100.00;100857.59;5034676;28;20375;-64
2021/08/13 00:55:54;;;;;;;;;;;18.00;99.90;;;17.93;100.00;100859.50;5034597;28;20007;-64
2021/08/13 00:58:23;;;;;;;;;;;18.00;99.90;;;18.00;100.00;100857.03;5033433;28;19951;-64
2021/08/13 01:00:53;;;;;;;;;;;18.00;99.90;;;18.00;100.00;100861.69;5033949;28;19971;-63
2021/08/13 01:03:21;;;;;;;;;;;18.00;99.90;;;17.97;100.00;100857.72;5034567;28;19935;-64
2021/08/13 01:05:48;;;;;;;;;;;18.00;99.90;;;17.98;100.00;100859.31;5034402;28;19932;-64
2021/08/13 01:08:16;;;;;;;;;;;18.00;99.90;;;18.02;100.00;100856.72;5033488;28;19936;-64
2021/08/13 01:10:49;;;;;;;;;;;18.00;99.90;;;18.02;100.00;100843.03;5033906;28;19925;-64
2021/08/13 01:13:25;;;;;;;;;;;18.00;99.90;;;18.02;100.00;100838.31;5034425;28;19925;-63
2021/08/13 01:15:58;;;;;;;;;;;18.00;99.90;;;18.05;100.00;100831.41;5034280;28;19929;-63
2021/08/13 01:18:30;;;;;;;;;;;18.10;99.90;;;18.08;100.00;100827.19;5033044;28;19925;-64
2021/08/13 01:21:34;;;;;;;;;;;18.10;99.90;;;18.07;100.00;100831.06;5033682;28;19925;-63
2021/08/13 01:24:04;;;;;;;;;;;18.10;99.90;;;17.99;100.00;100822.59;5025079;28;20352;-64
2021/08/13 01:26:35;;;;;;;;;;;18.00;99.90;;;17.83;100.00;100820.84;5033858;28;19932;-63
2021/08/13 01:29:06;;;;;;;;;;;17.90;99.90;;;17.78;100.00;100829.28;5033115;28;19925;-64
2021/08/13 01:31:43;;;;;;;;;;;17.90;99.90;;;17.77;100.00;100828.47;5033559;28;19926;-63
2021/08/13 01:34:13;;;;;;;;;;;17.80;99.90;;;17.85;100.00;100838.53;5033878;28;19925;-63
2021/08/13 01:36:42;;;;;;;;;;;17.90;99.90;;;17.96;100.00;100836.16;5033599;28;19932;-63
2021/08/13 01:39:10;;;;;;;;;;;18.00;99.90;;;18.00;100.00;100829.66;5032531;28;19929;-64
2021/08/13 01:41:39;;;;;;;;;;;18.00;99.90;;;18.05;100.00;100834.13;5033450;28;19932;-65
2021/08/13 01:44:08;;;;;;;;;;;18.10;99.90;;;18.20;100.00;100836.22;5033706;28;19925;-63
2021/08/13 01:46:36;;;;;;;;;;;18.20;99.90;;;18.21;100.00;100831.56;5033516;28;19925;-64
2021/08/13 01:49:04;;;;;;;;;;;18.20;99.90;;;18.09;100.00;100828.78;5031593;28;19933;-63
2021/08/13 01:51:34;;;;;;;;;;;18.10;99.90;;;17.97;100.00;100821.34;5033498;28;19925;-64
2021/08/13 01:54:03;;;;;;;;;;;17.90;99.90;;;17.73;100.00;100816.59;5033592;28;19925;-64
2021/08/13 01:56:32;;;;;;;;;;;;;;;17.58;100.00;100817.25;5033427;28;19979;-64
2021/08/13 01:59:01;;;;;;;;;;;17.60;99.90;;;17.53;100.00;100817.44;5032177;28;19932;-63
2021/08/13 02:01:30;;;;;;;;;;;17.60;99.90;;;17.50;100.00;100818.09;5033418;28;20299;-64
2021/08/13 02:03:58;;;;;;;;;;;17.60;99.90;;;17.52;100.00;100825.94;5033560;28;19925;-64
2021/08/13 02:06:26;;;;;;;;;;;17.50;99.90;;;17.57;100.00;100829.31;5033191;28;20398;-64
2021/08/13 02:08:56;;;;;;;;;;;17.60;99.90;;;17.63;100.00;100827.19;5032254;28;19940;-64
2021/08/13 02:11:25;;;;;;;;;;;17.60;99.90;;;17.70;100.00;100817.28;5033292;28;19936;-64
2021/08/13 02:13:53;;;;;;;;;;;17.70;99.90;;;17.76;100.00;100818.66;5033225;28;20028;-63
2021/08/13 02:16:25;;;;;;;;;;;17.80;99.90;;;17.78;100.00;100812.88;5033170;28;20378;-63
2021/08/13 02:18:57;;;;;;;;;;;17.80;99.90;;;17.75;100.00;100813.56;5031947;28;19932;-63
2021/08/13 02:21:25;;;;;;;;;;;17.80;99.90;;;17.64;100.00;100815.91;5033154;28;19925;-64
2021/08/13 02:23:53;;;;;;;;;;;17.70;99.90;;;17.66;100.00;100826.50;5033050;28;19934;-64
2021/08/13 02:26:22;;;;;;;;;;;17.70;99.90;;;17.68;100.00;100818.75;5032822;28;19988;-63
2021/08/13 02:28:50;;;;;;;;;;;17.70;99.90;;;17.74;100.00;100814.69;5031851;28;19952;-63
2021/08/13 02:31:18;;;;;;;;;;;17.70;99.90;;;17.83;100.00;100810.72;5032693;28;19948;-65
2021/08/13 02:33:46;;;;;;;;;;;17.80;99.90;;;17.90;100.00;100813.69;5032986;28;19929;-63
2021/08/13 02:36:16;;;;;;;;;;;17.90;99.90;;;17.86;100.00;100814.72;5032934;28;19932;-64
2021/08/13 02:38:51;;;;;;;;;;;17.80;99.90;;;17.85;100.00;100824.03;5031451;28;19956;-63
2021/08/13 02:41:19;;;;;;;;;;;17.80;99.90;;;17.84;100.00;100834.19;5032840;28;20028;-64
2021/08/13 02:43:53;;;;;;;;;;;17.80;99.90;;;17.76;100.00;100831.53;5032843;28;19926;-64
2021/08/13 02:46:22;;;;;;;;;;;17.70;99.90;;;17.67;100.00;100828.09;5032934;28;19929;-64
2021/08/13 02:48:50;;;;;;;;;;;17.70;99.90;;;17.65;100.00;100824.91;5031181;28;20296;-63
2021/08/13 02:51:19;;;;;;;;;;;17.60;99.90;;;17.54;100.00;100821.75;5032298;28;19983;-63
2021/08/13 02:53:49;;;;;;;;;;;17.60;99.90;;;17.30;100.00;100816.97;5032891;28;19936;-64
2021/08/13 02:56:19;;;;;;;;;;;17.50;99.90;;;17.34;100.00;100831.59;5032604;28;19925;-65
2021/08/13 02:58:48;;;;;;;;;;;17.40;99.90;;;17.35;100.00;100830.47;5031140;28;19929;-65
2021/08/13 03:01:19;;;;;;;;;;;17.40;99.90;;;17.38;100.00;100834.47;5031859;28;19929;-64
2021/08/13 03:03:48;;;;;;;;;;;17.40;99.90;;;17.42;100.00;100822.50;5032621;28;19925;-63
2021/08/13 03:06:18;;;;;;;;;;;17.50;99.90;;;17.52;100.00;100828.69;5032438;28;19929;-65
2021/08/13 03:08:47;;;;;;;;;;;17.50;99.90;;;17.61;100.00;100818.50;5031394;28;19929;-64
2021/08/13 03:11:16;;;;;;;;;;;17.70;99.90;;;17.67;100.00;100819.88;5032369;28;19932;-63
2021/08/13 03:13:44;;;;;;;;;;;17.70;99.90;;;17.73;100.00;100815.81;5032740;28;19925;-64
2021/08/13 03:16:13;;;;;;;;;;;17.80;99.90;;;17.81;100.00;100812.19;5032380;28;20148;-63
2021/08/13 03:18:43;;;;;;;;;;;17.90;99.90;;;17.86;100.00;100820.19;5031136;28;19932;-63
2021/08/13 03:21:11;;;;;;;;;;;17.90;99.90;;;17.92;100.00;100813.34;5032308;28;20411;-64
2021/08/13 03:23:39;;;;;;;;;;;18.00;99.90;;;18.02;100.00;100815.66;5032334;28;19925;-64
2021/08/13 03:26:08;;;;;;;;;;;18.10;99.90;;;18.11;100.00;100815.56;5032348;28;20304;-65
2021/08/13 03:28:36;;;;;;;;;;;18.10;99.90;;;18.18;100.00;100819.31;5031175;28;19925;-63
2021/08/13 03:31:04;;;;;;;;;;;18.20;99.90;;;18.16;100.00;100818.88;5031937;28;19933;-64
2021/08/13 03:33:32;;;;;;;;;;;18.10;99.90;;;18.09;100.00;100815.88;5032291;28;19932;-64
2021/08/13 03:36:02;;;;;;;;;;;18.10;99.90;;;18.00;100.00;100820.66;5032321;28;19926;-64
2021/08/13 03:38:29;;;;;;;;;;;18.00;99.90;;;17.97;100.00;100816.66;5031257;28;19925;-63
2021/08/13 03:40:57;;;;;;;;;;;18.00;99.90;;;17.97;100.00;100822.13;5032047;28;19940;-64
2021/08/13 03:43:26;;;;;;;;;;;18.00;99.90;;;17.93;100.00;100815.75;5032045;28;20292;-65
2021/08/13 03:45:53;;;;;;;;;;;17.90;99.90;;;17.93;100.00;100814.97;5032154;28;19929;-64
2021/08/13 03:48:21;;;;;;;;;;;17.90;99.90;;;17.90;100.00;100812.91;5031185;28;19933;-64
2021/08/13 03:50:49;;;;;;;;;;;17.90;99.90;;;17.90;100.00;100812.91;5032032;28;20295;-64
2021/08/13 03:53:18;;;;;;;;;;;17.90;99.90;;;17.88;100.00;100809.69;5032088;28;19925;-64
2021/08/13 03:55:46;;;;;;;;;;;17.90;99.90;;;17.85;100.00;100804.91;5032056;28;19936;-64
2021/08/13 03:58:13;;;;;;;;;;;17.90;99.90;;;17.85;100.00;100813.09;5030812;28;19932;-63
2021/08/13 04:00:41;;;;;;;;;;;17.90;99.90;;;17.87;100.00;100813.59;5031572;28;19925;-64
2021/08/13 04:03:09;;;;;;;;;;;17.90;99.90;;;17.83;100.00;100804.44;5032101;28;20398;-63
2021/08/13 04:05:37;;;;;;;;;;;17.90;99.90;;;17.87;100.00;100808.13;5031991;28;19925;-64
2021/08/13 04:08:05;;;;;;;;;;;17.90;99.90;;;17.83;100.00;100809.91;5030861;28;19925;-64
2021/08/13 04:10:34;;;;;;;;;;;18.00;99.90;;;17.84;100.00;100801.34;5031386;28;19925;-64
2021/08/13 04:13:02;;;;;;;;;;;17.90;99.90;;;17.86;100.00;100806.50;5034287;28;19925;-65
2021/08/13 04:15:30;;;;;;;;;;;17.90;99.90;;;17.93;100.00;100799.31;5035457;28;19952;-64
2021/08/13 04:17:58;;;;;;;;;;;18.00;99.90;;;17.99;100.00;100795.22;5034617;28;19925;-64
2021/08/13 04:20:25;;;;;;;;;;;18.00;99.90;;;17.96;100.00;100797.88;5034714;28;19933;-64
2021/08/13 04:22:53;;;;;;;;;;;18.00;99.90;;;17.92;100.00;100800.47;5035186;28;20307;-64
2021/08/13 04:25:21;;;;;;;;;;;18.00;99.90;;;17.94;100.00;100805.59;5035330;28;20367;-65
2021/08/13 04:27:50;;;;;;;;;;;18.00;99.90;;;17.94;100.00;100798.19;5034570;28;19933;-64
2021/08/13 04:30:18;;;;;;;;;;;18.00;99.90;;;17.96;100.00;100795.13;5034430;28;19925;-63
2021/08/13 04:32:46;;;;;;;;;;;18.00;99.90;;;17.96;100.00;100803.34;5035200;28;19951;-64
2021/08/13 04:35:14;;;;;;;;;;;18.00;99.90;;;17.95;100.00;100797.06;5035098;28;19933;-64
2021/08/13 04:37:41;;;;;;;;;;;18.00;99.90;;;17.85;100.00;100802.16;5034217;28;19933;-64
2021/08/13 04:40:10;;;;;;;;;;;17.90;99.90;;;17.76;100.00;100804.19;5034415;28;19925;-63
2021/08/13 04:42:38;;;;;;;;;;;17.90;99.90;;;17.69;100.00;100806.69;5034874;28;19925;-64
2021/08/13 04:45:08;;;;;;;;;;;17.80;99.90;;;17.67;100.00;100807.03;5035025;28;20303;-64
2021/08/13 04:47:37;;;;;;;;;;;17.80;99.90;;;17.66;100.00;100799.16;5034234;28;19926;-64
2021/08/13 04:50:06;;;;;;;;;;;17.70;99.90;;;17.62;100.00;100801.78;5034101;28;19929;-65
2021/08/13 04:52:33;;;;;;;;;;;17.70;99.90;;;17.68;100.00;100810.56;5034777;28;19933;-64
2021/08/13 04:55:01;;;;;;;;;;;17.70;99.90;;;17.71;100.00;100805.22;5034601;28;19925;-64
2021/08/13 04:57:29;;;;;;;;;;;17.80;99.90;;;17.64;100.00;100809.63;5033998;28;19929;-64
2021/08/13 04:59:56;;;;;;;;;;;17.80;99.90;;;17.61;100.00;100810.28;5033850;28;19933;-64
2021/08/13 05:02:26;;;;;;;;;;;17.70;99.90;;;17.53;100.00;100816.63;5034361;28;19932;-63
2021/08/13 05:04:59;;;;;;;;;;;17.70;99.90;;;17.48;100.00;100803.94;5034536;28;19925;-63
2021/08/13 05:07:29;;;;;;;;;;;17.60;99.90;;;17.46;100.00;100820.69;5034088;28;19933;-64
2021/08/13 05:09:57;;;;;;;;;;;17.60;99.90;;;17.56;100.00;100814.06;5033594;28;19925;-64
2021/08/13 05:12:25;;;;;;;;;;;17.70;99.90;;;17.72;100.00;100820.47;5034323;28;19979;-64
2021/08/13 05:14:52;;;;;;;;;;;17.80;99.90;;;17.68;100.00;100830.50;5034348;28;19933;-64
2021/08/13 05:17:20;;;;;;;;;;;17.80;99.90;;;17.57;100.00;100821.09;5034080;28;19929;-65
2021/08/13 05:19:50;;;;;;;;;;;17.70;99.90;;;17.35;100.00;100832.38;5032910;28;19976;-63
2021/08/13 05:22:17;;;;;;;;;;;17.50;99.90;;;17.32;100.00;100831.13;5034034;28;19925;-63
2021/08/13 05:24:45;;;;;;;;;;;17.50;99.90;;;17.26;100.00;100829.72;5034032;28;19929;-63
2021/08/13 05:27:13;;;;;;;;;;;17.50;99.90;;;17.26;100.00;100828.94;5033957;28;19925;-64
2021/08/13 05:29:41;;;;;;;;;;;17.40;99.90;;;17.14;100.00;100826.13;5032566;28;19932;-64
2021/08/13 05:32:09;;;;;;;;;;;17.30;99.90;;;16.99;100.00;100824.00;5033723;28;19929;-64
2021/08/13 05:34:36;;;;;;;;;;;17.20;99.90;;;16.95;100.00;100821.13;5033883;28;19936;-64
2021/08/13 05:37:06;;;;;;;;;;;17.20;99.90;;;17.07;100.00;100831.31;5033891;28;19925;-64
2021/08/13 05:39:34;;;;;;;;;;;17.20;99.90;;;17.24;100.00;100822.97;5032457;28;19925;-65
2021/08/13 05:42:01;;;;;;;;;;;17.30;99.90;;;17.30;100.00;100819.72;5033745;28;19925;-63
2021/08/13 05:44:29;;;;;;;;;;;17.40;99.90;;;17.33;100.00;100816.31;5033706;28;19925;-63
2021/08/13 05:46:57;;;;;;;;;;;17.50;99.90;;;17.38;100.00;100816.13;5033813;28;19929;-64
2021/08/13 05:49:25;;;;;;;;;;;17.50;99.90;;;17.56;100.00;100822.25;5032381;28;19976;-64
2021/08/13 05:51:52;;;;;;;;;;;17.60;99.90;;;17.66;100.00;100840.19;5033454;28;19933;-63
2021/08/13 05:54:21;;;;;;;;;;;17.70;99.90;;;17.66;100.00;100821.03;5033580;28;19933;-64
2021/08/13 05:56:49;;;;;;;;;;;17.80;99.90;;;17.65;100.00;100813.97;5033449;28;19935;-64
2021/08/13 05:59:17;;;;;;;;;;;17.70;99.90;;;17.70;100.00;100821.94;5032066;28;19925;-64
2021/08/13 06:01:45;;;;;;;;;;;17.80;99.90;;;17.81;100.00;100834.09;5033207;28;19925;-64
2021/08/13 06:04:12;;;;;;;;;;;17.90;99.90;;;17.92;100.00;100835.25;5033445;28;19931;-64
2021/08/13 06:06:43;;;;;;;;;;;18.00;99.90;;;17.92;100.00;100819.63;5033226;28;19932;-64
2021/08/13 06:09:10;;;;;;;;;;;18.00;99.90;;;17.89;100.00;100833.19;5031899;28;19929;-63
2021/08/13 06:11:40;;;;;;;;;;;18.00;99.90;;;17.89;100.00;100836.72;5032767;28;19925;-64
2021/08/13 06:14:07;;;;;;;;;;;18.00;99.90;;;17.98;100.00;100833.88;5033296;28;20363;-64
2021/08/13 06:16:35;;;;;;;;;;;18.10;99.90;;;17.99;100.00;100835.50;5033227;28;20538;-64
2021/08/13 06:19:03;;;;;;;;;;;18.20;99.90;;;17.90;100.00;100832.84;5031795;28;19956;-64
2021/08/13 06:21:31;;;;;;;;;;;18.20;99.90;;;18.11;100.00;100837.44;5032855;28;19929;-64
2021/08/13 06:23:59;;;;;;;;;;;18.20;99.90;;;18.39;100.00;100830.97;5032988;28;20023;-63
2021/08/13 06:26:27;;;;;;;;;;;18.40;99.90;;;18.72;100.00;100830.09;5033087;28;19925;-64
2021/08/13 06:28:56;;;;;;;;;;;18.70;99.90;;;19.03;100.00;100828.31;5031822;28;19933;-64
2021/08/13 06:31:25;;;;;;;;;;;19.00;99.90;;;19.09;100.00;100821.44;5032555;28;19925;-63
2021/08/13 06:33:53;;;;;;;;;;;19.10;99.90;;;19.23;100.00;100826.56;5032964;28;20376;-63
2021/08/13 06:36:21;;;;;;;;;;;19.20;99.90;;;19.63;100.00;100830.09;5032354;28;19968;-64
2021/08/13 06:38:48;;;;;;;;;;;19.90;99.90;;;20.00;100.00;100832.66;5031570;28;19931;-64
2021/08/13 06:41:16;;;;;;;;;;;20.00;99.90;;;20.03;100.00;100831.94;5032479;28;19925;-64
2021/08/13 06:43:44;;;;;;;;;;;20.30;99.90;;;20.18;100.00;100833.91;5032776;28;19932;-64
2021/08/13 06:46:13;;;;;;;;;;;20.30;99.90;;;20.41;100.00;100845.09;5032856;28;19932;-64
2021/08/13 06:48:41;;;;;;;;;;;20.90;99.90;;;20.81;99.56;100839.38;5031544;28;19925;-65
2021/08/13 06:51:09;;;;;;;;;;;21.20;99.90;;;21.55;94.21;100836.28;5032284;28;19928;-64
2021/08/13 06:53:36;;;;;;;;;;;21.50;99.90;;;22.10;88.34;100831.47;5032628;28;19929;-63
2021/08/13 06:56:05;;;;;;;;;;;22.20;99.90;;;22.66;83.88;100831.59;5032593;28;20319;-64
2021/08/13 06:58:32;;;;;;;;;;;22.80;99.90;;;23.02;80.60;100842.00;5031578;28;19925;-64
2021/08/13 07:01:00;;;;;;;;;;;23.50;99.90;;;23.19;80.25;100844.19;5032102;28;19925;-65
2021/08/13 07:03:30;;;;;;;;;;;;;;;23.27;79.90;100847.84;5032582;28;20354;-64
2021/08/13 07:05:57;;;;;;;;;;;23.90;99.90;;;23.10;79.76;100853.94;5032686;28;20288;-64
2021/08/13 07:08:25;;;;;;;;;;;23.80;99.90;;;22.69;81.55;100850.97;5031495;28;19932;-64
2021/08/13 07:10:53;;;;;;;;;;;23.40;99.90;;;22.37;85.12;100840.56;5032023;28;19931;-64
2021/08/13 07:13:21;;;;;;;;;;;22.90;99.90;;;22.29;88.28;100843.19;5032445;28;19952;-63
2021/08/13 07:15:48;;;;;;;;;;;22.70;99.90;;;22.32;88.50;100847.16;5032322;28;19940;-63
2021/08/13 07:18:16;;;;;;;;;;;22.80;99.90;;;22.46;87.81;100850.19;5031374;28;19929;-65
2021/08/13 07:20:45;;;;;;;;;;;22.80;99.90;;;22.74;86.60;100849.84;5031888;28;20292;-64
2021/08/13 07:23:13;;;;;;;;;;;23.00;99.90;;;22.86;87.26;100849.63;5032088;28;19925;-63
2021/08/13 07:25:41;;;;;;;;;;;23.20;99.90;;;22.91;87.42;100851.28;5032487;28;19925;-64
2021/08/13 07:28:09;;;;;;;;;;;23.20;99.90;;;23.03;87.91;100845.53;5031441;28;19936;-66
2021/08/13 07:30:36;;;;;;;;;;;23.30;99.90;;;23.09;86.91;100844.84;5031532;28;19948;-64
2021/08/13 07:33:05;;;;;;;;;;;23.40;99.90;;;23.12;87.54;100844.09;5032139;28;19925;-64
2021/08/13 07:35:33;;;;;;;;;;;23.60;99.90;;;23.45;85.45;100845.31;5032314;28;19929;-63
2021/08/13 07:38:02;;;;;;;;;;;24.00;99.90;;;23.81;80.43;100853.66;5031602;28;19929;-63
2021/08/13 07:40:30;;;;;;;;;;;;;;;24.09;77.61;100846.81;5031717;28;19925;-63
2021/08/13 07:42:58;;;;;;;;;;;;;;;24.45;73.07;100846.78;5031841;28;20283;-65
2021/08/13 07:45:25;;;;;;;;;;;;;;;24.86;70.50;100849.50;5032092;28;20392;-65
2021/08/13 07:47:53;;;;;;;;;;;25.20;99.90;;;25.24;68.02;100850.88;5033671;28;19929;-64
2021/08/13 07:50:21;;;;;;;;;;;25.40;99.90;;;25.51;63.55;100855.78;5035411;28;19945;-65
2021/08/13 07:52:49;;;;;;;;;;;25.80;99.90;;;25.70;61.92;100862.97;5035747;28;19932;-65
2021/08/13 07:55:18;;;;;;;;;;;26.00;99.90;;;25.88;61.59;100866.56;5035744;28;19932;-64
2021/08/13 07:57:46;;;;;;;;;;;26.20;99.90;;;26.07;61.03;100862.66;5034984;28;20023;-64
2021/08/13 08:00:15;;;;;;;;;;;26.40;99.90;;;26.25;61.13;100868.25;5035051;28;19935;-64
2021/08/13 08:02:42;;;;;;;;;;;26.40;99.90;;;26.54;59.87;100876.19;5035702;28;19948;-65
2021/08/13 08:05:11;;;;;;;;;;;26.80;99.90;;;26.79;58.64;100867.03;5035642;28;19932;-64
2021/08/13 08:07:39;;;;;;;;;;;27.00;99.90;;;27.08;58.09;100866.63;5034870;28;19929;-64
2021/08/13 08:10:08;;;;;;;;;;;27.20;99.90;;;27.10;57.29;100864.25;5035261;28;19932;-64
2021/08/13 08:12:37;;;;;;;;;;;27.40;99.90;;;26.55;55.39;100865.88;5035346;28;20027;-65
2021/08/13 08:15:06;;;;;;;;;;;27.00;99.90;;;26.02;57.83;100863.81;5035518;28;19932;-64
2021/08/13 08:17:34;;;;;;;;;;;26.40;99.90;;;26.08;59.48;100864.25;5034942;28;19925;-64
2021/08/13 08:20:01;;;;;;;;;;;26.30;99.90;;;26.48;58.04;100871.41;5034911;28;20061;-64
2021/08/13 08:22:29;;;;;;;;;;;26.60;99.90;;;26.83;56.93;100865.91;5035173;28;19925;-65
2021/08/13 08:24:57;;;;;;;;;;;26.90;99.90;;;27.08;55.20;100861.06;5035288;28;19933;-64
2021/08/13 08:27:24;;;;;;;;;;;27.40;99.90;;;27.44;55.58;100864.56;5034896;28;19925;-64
2021/08/13 08:29:54;;;;;;;;;;;27.70;99.90;;;27.68;53.72;100862.88;5034229;28;19929;-65
2021/08/13 08:32:22;;;;;;;;;;;27.80;99.90;;;27.85;53.60;100873.09;5034952;28;19929;-64
2021/08/13 08:34:49;;;;;;;;;;;28.20;99.90;;;28.04;52.76;100863.44;5035234;28;19932;-64
2021/08/13 08:37:18;;;;;;;;;;;28.20;99.90;;;28.18;52.78;100863.38;5034842;28;19925;-65
2021/08/13 08:39:47;;;;;;;;;;;28.40;99.90;;;28.40;51.68;100867.56;5033840;28;19929;-64
2021/08/13 08:42:16;;;;;;;;;;;28.60;99.90;;;28.57;51.58;100865.84;5034904;28;20031;-63
2021/08/13 08:44:46;;;;;;;;;;;28.80;99.90;;;28.71;51.15;100874.09;5034868;28;19933;-63
2021/08/13 08:47:17;;;;;;;;;;;29.00;99.90;;;28.87;50.98;100871.56;5034697;28;19969;-63
2021/08/13 08:49:45;;;;;;;;;;;29.10;99.90;;;29.15;48.74;100876.03;5033630;28;20387;-65
2021/08/13 08:52:13;;;;;;;;;;;;;;;29.07;47.06;100871.75;5034859;28;20444;-63
2021/08/13 08:54:43;;;;;;;;;;;29.50;99.90;;;28.89;48.50;100866.38;5034541;28;20380;-65
2021/08/13 08:57:12;;;;;;;;;;;29.30;99.90;;;28.71;48.64;100874.09;5034667;28;19926;-64
2021/08/13 08:59:40;;;;;;;;;;;29.20;99.90;;;28.84;48.27;100877.16;5033125;28;19925;-64
2021/08/13 09:02:08;;;;;;;;;;;29.20;99.90;;;29.19;46.31;100871.22;5034416;28;20342;-64
2021/08/13 09:04:38;;;;;;;;;;;29.50;99.90;;;29.29;44.98;100870.34;5034383;28;19937;-65
2021/08/13 09:07:07;;;;;;;;;;;29.60;99.90;;;29.51;45.45;100870.88;5034573;28;20479;-65
2021/08/13 09:09:35;;;;;;;;;;;29.80;99.90;;;29.75;44.62;100875.31;5033451;28;19926;-65
2021/08/13 09:12:03;;;;;;;;;;;30.00;99.90;;;30.01;43.61;100873.78;5034058;28;20299;-65
2021/08/13 09:14:40;;;;;;;;;;;30.30;99.90;;;30.15;43.70;100868.81;5034223;28;19925;-64
2021/08/13 09:17:08;;;;;;;;;;;30.40;99.90;;;30.47;42.88;100870.31;5034313;28;20403;-65
2021/08/13 09:19:45;;;;;;;;;;;30.60;99.90;;;30.62;42.37;100866.84;5033164;28;19933;-67
2021/08/13 09:22:15;;;;;;;;;;;30.90;99.90;;;30.66;42.41;100864.00;5034130;28;20282;-66
2021/08/13 09:24:43;;;;;;;;;;;30.90;99.90;;;30.72;42.49;100863.09;5034217;28;19932;-64
2021/08/13 09:27:19;;;;;;;;;;;31.00;99.90;;;30.78;41.84;100871.75;5033925;28;19971;-65
2021/08/13 09:30:08;;;;;;;;;;;31.10;99.90;;;31.00;42.64;100870.19;5032968;28;19924;-64
2021/08/13 09:32:36;;;;;;;;;;;31.30;99.90;;;31.02;45.63;100867.75;5034239;28;19969;-64
2021/08/13 09:35:06;;;;;;;;;;;31.50;99.90;;;30.83;45.71;100874.06;5033828;28;20356;-64
2021/08/13 09:37:35;;;;;;;;;;;31.50;99.90;;;30.49;45.40;100874.25;5033313;28;19952;-65
2021/08/13 09:40:02;;;;;;;;;;;31.30;99.90;;;29.81;47.41;100882.00;5032865;28;20482;-64
2021/08/13 09:42:36;;;;;;;;;;;30.80;99.90;;;29.57;48.58;100870.00;5033766;28;19951;-64
2021/08/13 09:45:05;;;;;;;;;;;30.30;99.90;;;29.47;49.39;100872.91;5034041;28;20383;-64
2021/08/13 09:47:43;;;;;;;;;;;30.00;99.90;;;29.53;49.02;100874.81;5033118;28;19933;-65
2021/08/13 09:50:14;;;;;;;;;;;30.00;99.90;;;29.40;49.47;100870.97;5032802;28;19936;-66
2021/08/13 09:52:42;;;;;;;;;;;29.80;99.90;;;29.23;50.84;100866.41;5033598;28;19925;-64
2021/08/13 09:55:13;;;;;;;;;;;29.70;99.90;;;29.26;51.52;100858.03;5033559;28;19936;-64
2021/08/13 09:57:42;;;;;;;;;;;29.70;99.90;;;29.25;51.57;100867.59;5032917;28;19929;-64
2021/08/13 10:00:12;;;;;;;;;;;29.70;99.90;;;29.23;52.80;100867.22;5032560;28;19999;-65
2021/08/13 10:02:41;;;;;;;;;;;29.60;99.90;;;29.32;51.98;100868.72;5033210;28;19929;-65
2021/08/13 10:05:23;;;;;;;;;;;29.70;99.90;;;28.94;53.17;100871.47;5033386;28;19929;-63
2021/08/13 10:07:52;;;;;;;;;;;29.60;99.90;;;28.45;54.22;100880.25;5032709;28;20403;-65
2021/08/13 10:10:24;;;;;;;;;;;29.10;99.90;;;28.04;55.79;100886.50;5032044;28;19925;-64
2021/08/13 10:12:52;;;;;;;;;;;28.70;99.90;;;27.87;56.56;100892.94;5033042;28;19945;-64
2021/08/13 10:15:31;;;;;;;;;;;28.50;99.90;;;27.82;57.22;100882.22;5033050;28;20002;-64
2021/08/13 10:18:00;;;;;;;;;;;28.30;99.90;;;27.83;57.68;100886.59;5032507;28;19929;-64
2021/08/13 10:20:31;;;;;;;;;;;28.20;99.90;;;28.12;56.60;100888.03;5032603;28;19929;-64
2021/08/13 10:22:59;;;;;;;;;;;28.40;99.90;;;28.23;56.87;100878.84;5033139;28;20372;-66
2021/08/13 10:25:27;;;;;;;;;;;28.60;99.90;;;28.46;55.45;100879.03;5032958;28;19968;-64
2021/08/13 10:27:54;;;;;;;;;;;28.80;99.90;;;28.48;55.16;100883.03;5032342;28;19925;-64
2021/08/13 10:30:23;;;;;;;;;;;28.80;99.90;;;28.28;56.01;100884.75;5032209;28;19929;-65
2021/08/13 10:32:56;;;;;;;;;;;28.80;99.90;;;28.18;55.41;100880.84;5032853;28;19947;-64
2021/08/13 10:35:28;;;;;;;;;;;28.70;99.90;;;28.10;56.68;100873.75;5032846;28;20024;-63
2021/08/13 10:37:58;;;;;;;;;;;28.60;99.90;;;28.22;56.60;100883.59;5032183;28;20299;-64
2021/08/13 10:40:26;;;;;;;;;;;28.60;99.90;;;28.42;56.15;100870.75;5032048;28;19929;-64
2021/08/13 10:42:54;;;;;;;;;;;28.70;99.90;;;28.51;56.12;100865.50;5032690;28;20307;-66
2021/08/13 10:45:23;;;;;;;;;;;28.80;99.90;;;28.53;56.13;100868.66;5032627;28;19928;-65
2021/08/13 10:47:59;;;;;;;;;;;29.00;99.90;;;28.77;55.52;100868.88;5032046;28;19925;-65
2021/08/13 10:50:27;;;;;;;;;;;29.10;99.90;;;28.99;55.10;100867.47;5032042;28;19932;-63
2021/08/13 10:52:57;;;;;;;;;;;29.30;99.90;;;29.30;54.97;100857.19;5032608;28;19925;-64
2021/08/13 10:55:51;;;;;;;;;;;29.50;99.90;;;29.57;52.97;100858.84;5032587;28;19925;-65
2021/08/13 10:58:43;;;;;;;;;;;29.80;99.90;;;29.37;53.24;100857.88;5030450;28;19940;-65
2021/08/13 11:01:12;;;;;;;;;;;29.90;99.90;;;29.22;53.48;100860.03;5031853;28;19929;-65
2021/08/13 11:03:40;;;;;;;;;;;29.70;99.90;;;29.00;54.30;100866.28;5032733;28;19925;-64
2021/08/13 11:06:09;;;;;;;;;;;29.50;99.90;;;28.94;54.61;100860.34;5032348;28;19929;-66
2021/08/13 11:09:00;;;;;;;;;;;29.30;99.90;;;28.99;54.49;100859.91;5031778;28;19932;-66
2021/08/13 11:11:29;;;;;;;;;;;29.30;99.90;;;29.07;53.97;100866.97;5032281;28;19929;-64
2021/08/13 11:13:56;;;;;;;;;;;29.50;99.90;;;29.01;53.30;100865.84;5032591;28;19936;-65
2021/08/13 11:16:38;;;;;;;;;;;29.50;99.90;;;28.90;55.38;100861.59;5032345;28;19925;-66